Time;durP1;ratioP1;P1;durP2;ratioP2;P2;SDS_P1;SDS_P2;PMS_P1;PMS_P2;Temp;Humidity;BMP_temperature;BMP_pressure;BME280_temperature;BME280_humidity;BME280_pressure;Samples;Min_cycle;Max_cycle;Signal;HPM_P1;HPM_P2
2021/12/16 00:01:47;;;;;;;15.67;6.53;;;;;;;2.14;82.00;101531.16;126289;1099;104181;-81
2021/12/16 00:05:10;;;;;;;13.73;6.10;;;;;;;2.13;81.63;101528.44;126363;1099;104204;-81
2021/12/16 00:07:38;;;;;;;18.30;6.90;;;;;;;2.15;82.10;101535.56;126312;1099;104143;-82
2021/12/16 00:10:21;;;;;;;14.30;6.10;;;;;;;2.16;81.78;101547.72;126224;1099;104144;-81
2021/12/16 00:30:09;;;;;;;15.27;5.93;;;;;;;2.20;80.92;101558.34;126070;1099;104156;-80
2021/12/16 00:32:48;;;;;;;14.37;5.90;;;;;;;2.20;80.91;101555.75;126092;1099;104191;-80
2021/12/16 00:35:20;;;;;;;17.43;6.57;;;;;;;2.20;81.07;101551.50;126196;1099;104175;-81
2021/12/16 00:37:51;;;;;;;15.30;6.20;;;;;;;2.21;81.07;101547.22;126325;1099;104146;-81
2021/12/16 00:40:25;;;;;;;15.70;6.10;;;;;;;2.21;80.42;101557.58;126349;1097;117756;-80
2021/12/16 00:43:12;;;;;;;16.23;6.80;;;;;;;2.20;80.66;101554.09;126293;1099;104143;-81
2021/12/16 00:45:57;;;;;;;16.33;6.77;;;;;;;2.22;81.59;101543.86;126358;1099;104150;-80
2021/12/16 00:49:00;;;;;;;14.63;6.13;;;;;;;2.23;80.54;101549.17;126243;1099;104147;-80
2021/12/16 00:54:25;;;;;;;14.90;5.60;;;;;;;2.23;81.08;101541.41;126138;1099;104207;-79
2021/12/16 00:57:03;;;;;;;14.17;5.87;;;;;;;2.24;81.19;101566.50;126162;1098;104255;-80
2021/12/16 00:59:39;;;;;;;18.37;7.47;;;;;;;2.25;81.59;101545.02;126128;1099;105462;-80
2021/12/16 01:02:28;;;;;;;14.27;6.13;;;;;;;2.22;81.03;101531.81;126200;1099;104143;-80
2021/12/16 01:05:47;;;;;;;15.17;6.63;;;;;;;2.24;81.32;101542.30;126322;1099;104210;-79
2021/12/16 01:08:36;;;;;;;15.00;6.17;;;;;;;2.24;81.63;101547.48;126304;1099;104720;-80
2021/12/16 01:34:35;;;;;;;24.00;8.87;;;;;;;2.20;83.29;101510.07;126375;1099;104143;-81
2021/12/16 01:37:43;;;;;;;20.20;8.43;;;;;;;2.21;83.19;101504.09;126365;1099;104251;-81
2021/12/16 01:40:29;;;;;;;21.07;9.47;;;;;;;2.23;83.15;101512.92;126257;1099;104605;-81
2021/12/16 01:51:55;;;;;;;23.50;9.60;;;;;;;2.23;83.14;101507.73;126253;1099;104149;-81
2021/12/16 01:54:53;;;;;;;23.53;10.03;;;;;;;2.22;83.08;101505.02;126243;1099;104322;-81
2021/12/16 01:57:31;;;;;;;25.43;10.27;;;;;;;2.24;83.42;101519.89;126288;1099;104188;-80
2021/12/16 02:00:10;;;;;;;25.73;10.37;;;;;;;2.26;83.46;101512.25;126215;1099;104153;-80
2021/12/16 02:02:50;;;;;;;25.30;9.83;;;;;;;2.23;83.52;101512.92;126342;1097;104178;-81
2021/12/16 02:05:34;;;;;;;24.37;10.67;;;;;;;2.24;83.68;101503.45;126335;1099;104262;-81
2021/12/16 02:08:22;;;;;;;25.57;11.30;;;;;;;2.26;82.86;101504.48;126249;1099;104185;-81
2021/12/16 02:11:19;;;;;;;28.50;12.63;;;;;;;2.26;83.35;101499.30;126285;1099;104178;-81
2021/12/16 02:31:32;;;;;;;27.13;10.33;;;;;;;2.28;84.20;101505.55;125914;1099;105171;-80
2021/12/16 02:34:25;;;;;;;29.43;11.83;;;;;;;2.28;83.68;101510.72;126178;1099;104171;-79
2021/12/16 02:36:58;;;;;;;26.10;11.37;;;;;;;2.29;84.21;101507.33;126104;1099;104300;-80
2021/12/16 02:39:35;;;;;;;29.43;11.57;;;;;;;2.30;83.65;101511.75;126152;1098;104149;-80
2021/12/16 02:42:16;;;;;;;27.83;12.10;;;;;;;2.30;83.47;101509.16;126165;1099;104338;-81
2021/12/16 02:50:34;;;;;;;30.50;12.47;;;;;;;2.32;84.28;101511.11;125849;1099;104153;-81
2021/12/16 02:53:05;;;;;;;30.50;12.27;;;;;;;2.32;84.32;101513.70;126307;1099;104195;-81
2021/12/16 02:55:37;;;;;;;32.53;13.70;;;;;;;2.32;84.08;101511.11;126276;1099;104284;-81
2021/12/16 02:58:08;;;;;;;30.80;12.80;;;;;;;2.32;84.53;101521.47;126334;1098;104248;-81
2021/12/16 03:00:45;;;;;;;34.43;14.37;;;;;;;2.32;84.42;101517.95;126300;1099;104389;-81
2021/12/16 03:03:21;;;;;;;32.63;13.13;;;;;;;2.32;84.08;101516.30;126233;1099;104192;-82
2021/12/16 03:05:58;;;;;;;33.17;13.73;;;;;;;2.34;84.14;101519.02;126283;1099;104329;-80
2021/12/16 03:08:32;;;;;;;31.27;14.13;;;;;;;2.36;84.18;101519.14;126284;1099;104219;-81
2021/12/16 03:11:19;;;;;;;29.75;12.15;;;;;;;2.34;84.36;101512.14;126320;1099;104236;-81
2021/12/16 03:14:17;;;;;;;34.53;14.97;;;;;;;2.33;84.54;101512.91;126382;1099;118982;-80
2021/12/16 03:17:04;;;;;;;34.30;13.50;;;;;;;2.32;84.33;101523.14;126269;1099;104163;-80
2021/12/16 03:19:49;;;;;;;34.83;14.63;;;;;;;2.32;84.42;101524.06;126326;1099;104181;-81
2021/12/16 03:22:39;;;;;;;36.43;16.03;;;;;;;2.32;84.39;101521.47;126178;1099;104137;-80
2021/12/16 03:25:20;;;;;;;35.97;15.07;;;;;;;2.31;84.69;101527.42;126341;1099;104149;-80
2021/12/16 03:37:12;;;;;;;32.63;13.57;;;;;;;2.32;84.94;101526.66;126256;1099;104182;-81
2021/12/16 03:39:47;;;;;;;34.27;14.70;;;;;;;2.30;84.81;101522.11;126191;1098;104223;-81
2021/12/16 03:42:22;;;;;;;37.93;15.93;;;;;;;2.28;84.58;101524.56;126104;1097;104384;-81
2021/12/16 03:44:59;;;;;;;38.90;16.40;;;;;;;2.27;85.09;101522.73;126231;1099;104181;-80
2021/12/16 03:47:39;;;;;;;50.27;22.17;;;;;;;2.29;84.34;101533.23;126308;1099;104153;-79
2021/12/16 03:50:18;;;;;;;47.50;20.37;;;;;;;2.26;84.99;101526.13;126325;1099;104162;-81
2021/12/16 03:52:54;;;;;;;49.40;21.77;;;;;;;2.27;84.98;101527.92;126288;1099;104159;-81
2021/12/16 03:55:26;;;;;;;37.97;16.03;;;;;;;2.26;85.03;101525.20;126120;1099;104195;-81
2021/12/16 03:57:58;;;;;;;39.43;15.93;;;;;;;2.26;85.03;101517.43;126048;1099;104277;-81
2021/12/16 04:00:39;;;;;;;40.30;16.43;;;;;;;2.24;85.22;101516.41;126099;1099;104190;-81
2021/12/16 04:03:11;;;;;;;46.23;19.67;;;;;;;2.24;84.53;101525.07;126042;1099;104162;-81
2021/12/16 04:05:49;;;;;;;36.73;15.45;;;;;;;2.23;85.05;101510.33;126047;1099;104733;-81
2021/12/16 04:08:21;;;;;;;37.77;16.30;;;;;;;2.22;85.59;101520.56;126021;1099;104322;-79
2021/12/16 04:11:04;;;;;;;42.63;16.83;;;;;;;2.23;85.22;101502.56;126205;1099;104175;-81
2021/12/16 04:14:02;;;;;;;38.27;16.70;;;;;;;2.22;85.00;101517.97;126135;1099;104326;-80
2021/12/16 04:16:46;;;;;;;40.10;16.47;;;;;;;2.21;85.25;101524.81;126173;1099;104140;-81
2021/12/16 04:19:22;;;;;;;41.53;15.90;;;;;;;2.21;85.09;101532.58;126224;1099;104223;-80
2021/12/16 04:22:01;;;;;;;43.80;19.60;;;;;;;2.22;85.02;101524.05;126047;1099;102386;-81
2021/12/16 04:24:34;;;;;;;43.97;19.13;;;;;;;2.24;84.95;101519.00;125156;1099;104149;-80
2021/12/16 04:27:08;;;;;;;40.77;18.37;;;;;;;2.23;85.04;101520.69;125178;1099;104189;-81
2021/12/16 04:29:40;;;;;;;42.88;18.37;;;;;;;2.23;84.78;101528.45;125223;1099;104617;-81
2021/12/16 04:32:12;;;;;;;44.30;18.53;;;;;;;2.22;85.26;101525.73;125215;1102;104322;-80
2021/12/16 04:34:44;;;;;;;43.20;18.20;;;;;;;2.20;85.38;101520.42;125382;1099;104344;-81
2021/12/16 04:37:16;;;;;;;43.47;18.60;;;;;;;2.19;85.85;101510.83;126185;1099;104278;-80
2021/12/16 04:39:50;;;;;;;41.93;16.40;;;;;;;2.19;85.12;101518.59;125420;1099;104258;-82
2021/12/16 04:42:25;;;;;;;41.28;17.67;;;;;;;2.18;84.72;101515.88;125493;1099;104185;-80
2021/12/16 04:44:57;;;;;;;47.37;20.17;;;;;;;2.18;85.50;101523.65;125555;1099;104277;-81
2021/12/16 04:47:30;;;;;;;42.27;17.60;;;;;;;2.18;84.74;101521.95;125165;1099;103057;-79
2021/12/16 04:50:02;;;;;;;42.30;17.83;;;;;;;2.16;85.17;101514.05;125174;1099;104408;-80
2021/12/16 04:52:34;;;;;;;46.77;19.50;;;;;;;2.16;85.15;101516.64;125175;1099;104403;-79
2021/12/16 04:55:07;;;;;;;48.83;23.20;;;;;;;2.16;84.95;101516.64;126045;1099;104290;-80
2021/12/16 04:57:40;;;;;;;52.80;23.67;;;;;;;2.18;84.43;101518.47;125398;1099;104414;-80
2021/12/16 05:00:20;;;;;;;43.80;19.67;;;;;;;2.17;84.85;101520.16;125421;1099;104290;-81
2021/12/16 05:02:56;;;;;;;41.05;17.12;;;;;;;2.13;85.06;101511.20;126162;1099;104149;-81
2021/12/16 05:05:46;;;;;;;39.87;15.10;;;;;;;2.11;85.09;101523.12;126017;1099;104203;-81
2021/12/16 05:08:18;;;;;;;44.70;17.67;;;;;;;2.10;85.52;101521.33;125421;1099;104960;-81
2021/12/16 05:11:11;;;;;;;37.33;14.90;;;;;;;2.11;85.38;101507.59;125362;1099;104258;-81
2021/12/16 05:13:48;;;;;;;37.70;14.53;;;;;;;2.08;85.39;101511.61;125968;1099;104315;-81
2021/12/16 05:16:20;;;;;;;39.53;17.20;;;;;;;2.08;85.08;101502.14;125362;1099;108081;-81
2021/12/16 05:18:57;;;;;;;41.30;16.67;;;;;;;2.10;85.09;101504.86;125341;1099;104207;-81
2021/12/16 05:21:46;;;;;;;41.93;17.07;;;;;;;2.12;85.12;101517.18;125138;1102;102334;-81
2021/12/16 05:24:26;;;;;;;43.17;16.93;;;;;;;2.11;85.58;101514.46;125219;1102;104297;-81
2021/12/16 05:27:09;;;;;;;41.70;16.67;;;;;;;2.10;84.15;101504.86;125157;1102;104431;-81
2021/12/16 05:29:43;;;;;;;40.20;17.47;;;;;;;2.11;84.77;101505.00;125117;1102;102246;-81
2021/12/16 05:32:20;;;;;;;39.63;17.30;;;;;;;2.14;84.89;101515.62;125239;1102;104408;-81
2021/12/16 05:34:52;;;;;;;41.53;16.20;;;;;;;2.13;84.63;101508.61;126062;1099;104272;-82
2021/12/16 05:37:23;;;;;;;39.60;17.70;;;;;;;2.13;85.25;101499.95;125369;1099;104309;-80
2021/12/16 05:39:55;;;;;;;35.90;15.27;;;;;;;2.14;84.83;101500.08;125378;1099;104523;-81
2021/12/16 05:42:47;;;;;;;39.73;16.03;;;;;;;2.12;85.62;101500.71;125305;1099;104149;-80
2021/12/16 05:45:19;;;;;;;39.87;16.60;;;;;;;2.11;85.00;101510.17;125214;1099;104144;-80
2021/12/16 05:47:51;;;;;;;41.10;18.03;;;;;;;2.12;85.40;101508.48;125148;1102;104175;-80
2021/12/16 05:50:22;;;;;;;43.07;16.00;;;;;;;2.12;84.63;101518.84;125180;1102;104338;-80
2021/12/16 05:52:54;;;;;;;37.60;14.90;;;;;;;2.10;84.63;101517.81;125358;1099;104275;-80
2021/12/16 05:55:25;;;;;;;41.37;15.53;;;;;;;2.09;84.90;101522.09;125060;1099;104217;-80
2021/12/16 05:58:19;;;;;;;39.23;16.57;;;;;;;2.05;84.56;101525.19;125043;1100;104156;-80
2021/12/16 06:00:54;;;;;;;39.78;16.52;;;;;;;2.11;85.23;101541.25;125077;1102;104223;-81
2021/12/16 06:03:29;;;;;;;46.23;18.37;;;;;;;2.10;85.18;101539.45;125273;1102;102951;-80
2021/12/16 06:06:01;;;;;;;41.50;17.80;;;;;;;2.10;84.73;101542.05;125147;1099;104476;-80
2021/12/16 06:08:33;;;;;;;38.30;16.70;;;;;;;2.11;84.97;101551.61;125210;1100;104918;-80
2021/12/16 06:11:18;;;;;;;41.87;17.07;;;;;;;2.11;84.51;101553.30;125152;1102;104245;-79
2021/12/16 06:14:03;;;;;;;44.97;18.17;;;;;;;2.11;85.16;101550.70;125098;1102;104157;-80
2021/12/16 06:22:34;;;;;;;39.07;17.37;;;;;;;2.13;84.93;101568.17;125257;1099;102115;-80
2021/12/16 06:28:07;;;;;;;45.10;18.90;;;;;;;2.16;85.59;101565.84;125905;1099;111907;-82
2021/12/16 06:30:43;;;;;;;41.13;17.20;;;;;;;2.19;85.29;101582.45;126160;1099;104303;-81
2021/12/16 06:33:18;;;;;;;41.57;18.50;;;;;;;2.21;85.02;101580.89;126118;1099;104227;-80
2021/12/16 06:35:52;;;;;;;38.23;16.03;;;;;;;2.20;84.76;101585.17;126060;1099;104155;-79
2021/12/16 06:38:23;;;;;;;;;;;;;;;2.21;85.44;101575.70;126016;1098;104175;-80
2021/12/16 06:41:17;;;;;;;35.70;15.33;;;;;;;2.20;84.40;101577.40;125839;1099;104302;-80
2021/12/16 06:43:54;;;;;;;39.93;17.50;;;;;;;2.20;85.07;101571.30;125936;1099;104236;-82
2021/12/16 06:46:32;;;;;;;37.70;15.23;;;;;;;2.22;85.08;101575.84;125916;1098;102760;-80
2021/12/16 06:49:12;;;;;;;38.33;15.37;;;;;;;2.24;84.98;101578.56;126038;1099;104271;-81
2021/12/16 06:51:58;;;;;;;36.17;15.03;;;;;;;2.22;84.42;101580.13;126000;1099;104220;-81
2021/12/16 06:54:39;;;;;;;35.47;15.27;;;;;;;2.22;85.23;101580.13;126081;1098;104169;-81
2021/12/16 06:57:22;;;;;;;35.03;14.13;;;;;;;2.22;85.16;101585.30;125947;1099;104093;-81
2021/12/16 07:00:02;;;;;;;33.67;13.43;;;;;;;2.24;84.87;101583.74;125799;1099;104200;-83
2021/12/16 07:02:55;;;;;;;34.87;13.27;;;;;;;2.25;85.36;101585.56;126002;1099;104185;-81
2021/12/16 07:05:38;;;;;;;29.93;11.67;;;;;;;2.24;84.58;101588.92;125950;1099;104224;-81
2021/12/16 07:08:14;;;;;;;29.97;12.40;;;;;;;2.28;84.73;101591.91;125817;1099;104179;-82
2021/12/16 07:11:06;;;;;;;35.20;12.60;;;;;;;2.33;84.68;101600.08;125626;1099;104162;-82
2021/12/16 07:13:44;;;;;;;31.35;11.25;;;;;;;2.30;83.74;101590.34;125976;1099;104140;-80
2021/12/16 07:16:21;;;;;;;28.00;11.50;;;;;;;2.34;84.02;101605.39;125967;1099;104269;-79
2021/12/16 07:18:57;;;;;;;29.67;10.67;;;;;;;2.37;83.96;101599.58;126124;1099;104344;-79
2021/12/16 07:21:37;;;;;;;25.57;9.73;;;;;;;2.40;84.25;101593.73;125945;1099;104429;-80
2021/12/16 07:24:13;;;;;;;23.80;7.57;;;;;;;2.36;83.01;101610.70;125922;1099;104172;-80
2021/12/16 07:26:47;;;;;;;24.50;8.43;;;;;;;2.38;83.84;101582.34;125648;1099;104193;-80
2021/12/16 07:29:23;;;;;;;24.85;10.60;;;;;;;2.38;84.26;101578.05;125699;1098;105417;-79
2021/12/16 07:32:02;;;;;;;23.07;8.30;;;;;;;2.40;84.02;101579.12;125607;1099;104792;-80
2021/12/16 07:34:50;;;;;;;20.33;7.90;;;;;;;2.44;84.22;101583.77;125756;1098;104140;-81
2021/12/16 07:37:25;;;;;;;22.93;8.03;;;;;;;2.47;83.98;101581.44;125692;1099;102819;-80
2021/12/16 07:40:00;;;;;;;;;;;;;;;2.48;83.73;101577.19;125691;1099;104403;-79
2021/12/16 07:43:23;;;;;;;16.80;5.97;;;;;;;2.48;83.84;101572.89;125722;1099;104380;-81
2021/12/16 07:46:02;;;;;;;17.67;6.37;;;;;;;2.49;83.67;101559.17;126040;1098;104127;-77
2021/12/16 07:48:37;;;;;;;19.50;6.47;;;;;;;2.56;83.52;101557.11;126151;1099;104272;-77
2021/12/16 07:51:28;;;;;;;18.03;6.60;;;;;;;2.62;83.69;101563.70;125822;1099;104428;-82
2021/12/16 07:57:14;;;;;;;15.73;6.27;;;;;;;2.79;83.28;101536.62;125826;1098;104146;-80
2021/12/16 07:59:54;;;;;;;16.67;6.43;;;;;;;2.89;83.06;101548.64;125676;1099;102335;-77
2021/12/16 08:02:45;;;;;;;;;;;;;;;;;;;;;
2021/12/16 08:05:32;;;;;;;20.27;8.00;;;;;;;2.98;83.00;101545.92;125855;1098;102816;-82
2021/12/16 08:08:07;;;;;;;29.03;11.87;;;;;;;3.05;82.92;101545.63;126073;1099;104159;-81
2021/12/16 08:10:51;;;;;;;28.03;12.50;;;;;;;3.14;82.58;101554.17;126145;1099;104245;-80
2021/12/16 08:13:31;;;;;;;21.97;9.00;;;;;;;3.20;82.29;101571.94;126136;1099;104398;-77
2021/12/16 08:16:17;;;;;;;21.50;8.80;;;;;;;3.27;82.54;101557.77;126143;1099;104147;-81
2021/12/16 08:19:00;;;;;;;22.70;8.23;;;;;;;3.35;82.75;101562.82;125740;1099;104187;-80
2021/12/16 08:21:52;;;;;;;19.50;6.80;;;;;;;3.43;82.33;101568.63;126123;1099;104166;-80
2021/12/16 08:24:24;;;;;;;17.97;7.10;;;;;;;3.45;82.37;101560.98;125860;1099;104258;-79
2021/12/16 08:26:59;;;;;;;16.47;6.13;;;;;;;3.47;82.23;101562.00;126073;1099;104711;-79
2021/12/16 08:32:24;;;;;;;19.90;7.90;;;;;;;3.46;81.25;101553.31;126004;1099;104195;-79
2021/12/16 08:34:58;;;;;;;19.97;8.60;;;;;;;3.42;82.63;101551.24;125823;1099;104318;-79
2021/12/16 08:37:39;;;;;;;20.50;8.13;;;;;;;3.40;81.87;101558.01;126061;1099;104140;-81
2021/12/16 08:40:20;;;;;;;27.67;13.30;;;;;;;3.42;82.18;101551.24;125764;1099;104175;-80
2021/12/16 08:42:58;;;;;;;27.63;11.50;;;;;;;3.45;81.90;101543.70;125972;1099;104140;-80
2021/12/16 08:45:36;;;;;;;26.15;10.55;;;;;;;3.53;82.53;101544.33;126084;1099;104193;-82
2021/12/16 08:48:15;;;;;;;22.17;10.70;;;;;;;3.59;82.49;101539.63;126103;1098;104297;-79
2021/12/16 08:50:52;;;;;;;25.00;10.47;;;;;;;3.67;82.63;101545.44;126051;1099;104678;-81
2021/12/16 08:53:28;;;;;;;27.20;11.55;;;;;;;3.72;81.76;101541.52;126077;1099;104156;-79
2021/12/16 08:56:01;;;;;;;27.93;11.47;;;;;;;3.76;82.27;101523.70;126129;1099;104213;-80
2021/12/16 08:58:38;;;;;;;25.32;10.82;;;;;;;3.84;81.76;101518.22;126119;1099;104143;-80
2021/12/16 09:01:14;;;;;;;26.03;10.90;;;;;;;3.96;81.09;101521.79;125992;1099;104704;-79
2021/12/16 09:03:48;;;;;;;26.77;10.90;;;;;;;4.08;81.41;101506.23;125973;1099;104265;-80
2021/12/16 09:06:23;;;;;;;23.35;10.40;;;;;;;4.16;80.76;101518.16;126018;1099;104331;-81
2021/12/16 09:08:59;;;;;;;22.37;9.97;;;;;;;4.16;81.29;101512.96;126057;1099;104256;-79
2021/12/16 09:11:39;;;;;;;26.13;11.27;;;;;;;4.14;80.28;101506.72;125994;1099;104156;-80
2021/12/16 09:14:16;;;;;;;24.73;11.07;;;;;;;4.20;81.80;101511.50;125917;1099;104172;-81
2021/12/16 09:16:52;;;;;;;26.15;11.00;;;;;;;4.20;81.27;101508.89;125920;1099;104313;-82
2021/12/16 09:19:31;;;;;;;26.43;12.03;;;;;;;4.21;81.13;101510.72;125833;1099;104200;-83
2021/12/16 09:22:15;;;;;;;25.50;11.00;;;;;;;4.18;79.85;101507.88;125893;1099;111660;-79
2021/12/16 09:24:52;;;;;;;22.77;9.87;;;;;;;4.11;80.26;101511.67;126093;1097;104159;-80
2021/12/16 09:27:26;;;;;;;23.30;9.90;;;;;;;4.06;79.60;101510.42;126047;1099;104178;-79
2021/12/16 09:30:02;;;;;;;25.30;10.83;;;;;;;4.04;80.72;101522.39;126001;1099;104229;-80
2021/12/16 09:32:37;;;;;;;27.73;11.70;;;;;;;3.99;81.08;101513.31;126183;1099;104158;-79
2021/12/16 09:35:12;;;;;;;29.80;12.40;;;;;;;3.95;81.09;101507.87;126030;1099;104165;-79
2021/12/16 09:37:48;;;;;;;34.03;12.93;;;;;;;3.95;81.55;101509.58;126025;1099;101821;-81
2021/12/16 09:40:28;;;;;;;25.67;11.13;;;;;;;3.93;81.16;101512.05;125942;1099;102380;-80
2021/12/16 09:43:01;;;;;;;28.27;13.03;;;;;;;3.90;80.71;101497.94;126073;1099;104188;-78
2021/12/16 09:45:33;;;;;;;23.20;10.77;;;;;;;3.87;81.12;101497.70;125983;1099;104223;-78
2021/12/16 09:48:16;;;;;;;28.40;11.70;;;;;;;3.85;80.98;101501.84;126016;1099;104140;-80
2021/12/16 09:50:54;;;;;;;28.90;11.93;;;;;;;3.82;80.46;101499.00;125993;1099;102299;-78
2021/12/16 09:53:35;;;;;;;31.00;12.00;;;;;;;3.78;80.48;101493.56;126182;1099;104153;-80
2021/12/16 09:56:17;;;;;;;26.60;11.43;;;;;;;3.75;80.61;101495.92;126189;1099;104181;-79
2021/12/16 09:58:52;;;;;;;31.57;14.83;;;;;;;3.70;79.73;101491.17;126118;1099;104207;-80
2021/12/16 10:01:28;;;;;;;40.23;19.30;;;;;;;3.67;80.46;101493.52;126050;1099;104149;-81
2021/12/16 10:04:21;;;;;;;28.17;13.00;;;;;;;3.67;80.77;101481.44;125986;1099;104140;-82
2021/12/16 10:07:01;;;;;;;25.53;12.03;;;;;;;3.63;80.00;101474.22;125858;1097;104306;-81
2021/12/16 10:09:37;;;;;;;28.00;13.10;;;;;;;3.62;80.44;101456.82;125769;1099;104223;-83
2021/12/16 10:12:18;;;;;;;27.83;13.17;;;;;;;3.60;80.80;101451.51;125869;1099;104176;-80
2021/12/16 10:18:30;;;;;;;26.33;11.27;;;;;;;3.66;80.50;101442.38;125614;1099;104200;-79
2021/12/16 10:21:13;;;;;;;29.43;12.67;;;;;;;3.66;80.39;101437.19;125700;1099;104224;-80
2021/12/16 10:23:48;;;;;;;28.53;12.70;;;;;;;3.69;80.03;101427.05;125636;1099;104238;-82
2021/12/16 10:26:23;;;;;;;30.57;12.90;;;;;;;3.72;80.27;101422.09;125840;1099;104182;-79
2021/12/16 10:28:57;;;;;;;30.50;14.23;;;;;;;3.75;80.44;101436.21;125737;1098;104214;-80
2021/12/16 10:31:34;;;;;;;30.53;13.93;;;;;;;3.74;80.27;101436.09;125613;1099;104248;-79
2021/12/16 10:34:32;;;;;;;29.23;13.70;;;;;;;3.75;80.60;101450.89;125699;1099;104165;-78
2021/12/16 10:39:52;;;;;;;30.70;13.67;;;;;;;3.78;80.27;101451.13;125548;1099;104146;-81
2021/12/16 10:42:24;;;;;;;;;;;;;;;3.72;79.69;101440.27;125753;1098;104335;-82
2021/12/16 10:44:59;;;;;;;29.73;13.63;;;;;;;3.69;79.77;101440.03;125723;1099;104163;-81
2021/12/16 10:47:33;;;;;;;32.60;13.70;;;;;;;3.67;79.94;101436.42;125632;1099;103111;-79
2021/12/16 10:50:19;;;;;;;29.00;13.05;;;;;;;3.64;80.34;101439.67;125642;1099;104259;-80
2021/12/16 10:53:06;;;;;;;29.23;13.40;;;;;;;3.65;80.09;101432.81;125597;1099;104284;-79
2021/12/16 10:56:07;;;;;;;31.10;13.37;;;;;;;3.66;79.88;101444.98;125607;1099;104201;-79
2021/12/16 10:58:55;;;;;;;25.13;11.17;;;;;;;3.63;79.62;101423.97;125578;1099;102649;-80
2021/12/16 11:01:42;;;;;;;26.77;10.70;;;;;;;3.61;79.77;101429.05;125669;1099;104342;-82
2021/12/16 11:04:38;;;;;;;25.00;9.60;;;;;;;3.53;77.95;101431.03;125538;1099;107116;-81
2021/12/16 11:07:16;;;;;;;24.40;10.20;;;;;;;3.55;79.87;101426.89;125728;1099;104137;-79
2021/12/16 11:10:01;;;;;;;25.57;11.97;;;;;;;3.58;80.25;101429.73;125818;1098;104117;-80
2021/12/16 11:12:47;;;;;;;25.33;11.77;;;;;;;3.62;79.47;101427.38;125885;1099;104201;-80
2021/12/16 11:15:28;;;;;;;24.50;11.27;;;;;;;3.63;79.31;101444.73;125880;1099;104175;-81
2021/12/16 11:18:07;;;;;;;28.53;11.43;;;;;;;3.63;79.86;101458.64;125076;1099;104345;-82
2021/12/16 11:21:03;;;;;;;29.70;12.17;;;;;;;3.63;79.50;101439.55;125046;1099;104242;-83
2021/12/16 11:23:57;;;;;;;26.67;11.53;;;;;;;3.63;80.10;101439.55;125494;1099;104242;-81
2021/12/16 11:26:38;;;;;;;25.80;10.40;;;;;;;3.63;79.20;101448.27;125611;1099;102864;-82
2021/12/16 11:29:43;;;;;;;28.73;12.17;;;;;;;3.63;79.88;101436.95;125174;1099;102656;-83
2021/12/16 11:32:41;;;;;;;26.60;11.73;;;;;;;3.60;79.89;101430.75;125060;1099;102921;-83
2021/12/16 11:38:47;;;;;;;25.10;10.77;;;;;;;3.62;79.42;101427.38;124990;1103;104152;-81
2021/12/16 11:41:38;;;;;;;25.90;10.03;;;;;;;3.59;78.78;101428.03;124961;1103;104189;-80
2021/12/16 11:44:30;;;;;;;20.93;9.03;;;;;;;3.56;79.07;101422.59;125037;1099;104890;-80
2021/12/16 11:47:06;;;;;;;23.30;9.53;;;;;;;3.57;78.79;101421.83;124969;1099;104175;-79
2021/12/16 11:52:50;;;;;;;22.43;7.67;;;;;;;3.53;78.44;101402.48;125057;1102;104370;-83
2021/12/16 11:55:33;;;;;;;18.25;7.40;;;;;;;3.52;78.37;101404.97;125117;1102;104217;-82
2021/12/16 11:58:09;;;;;;;18.30;7.15;;;;;;;3.52;77.51;101391.98;125121;1099;104501;-81
2021/12/16 12:00:55;;;;;;;20.10;7.30;;;;;;;3.51;77.88;101380.72;125191;1099;104355;-81
2021/12/16 12:03:38;;;;;;;18.73;8.00;;;;;;;3.50;77.55;101372.81;125136;1099;104450;-82
2021/12/16 12:06:21;;;;;;;19.50;7.80;;;;;;;3.50;77.76;101365.92;125105;1099;104223;-79
2021/12/16 12:08:58;;;;;;;18.77;7.27;;;;;;;3.46;78.08;101369.08;125107;1099;104201;-80
2021/12/16 12:11:38;;;;;;;18.47;7.30;;;;;;;3.45;77.70;101377.64;125889;1099;104245;-81
2021/12/16 12:14:18;;;;;;;20.83;7.93;;;;;;;3.45;77.45;101371.55;125839;1099;105213;-79
2021/12/16 12:16:54;;;;;;;23.37;9.27;;;;;;;3.44;77.74;101372.33;125944;1099;104249;-79
2021/12/16 12:19:30;;;;;;;23.03;8.90;;;;;;;3.41;77.30;101367.80;126045;1097;104162;-79
2021/12/16 12:22:05;;;;;;;22.87;10.63;;;;;;;3.41;78.17;101362.61;125996;1099;104238;-79
2021/12/16 12:24:41;;;;;;;21.00;9.07;;;;;;;3.39;77.41;101361.59;125827;1099;104207;-80
2021/12/16 12:27:16;;;;;;;20.87;8.53;;;;;;;3.38;77.70;101359.77;125945;1099;104696;-81
2021/12/16 12:30:03;;;;;;;20.97;8.90;;;;;;;3.37;78.72;101358.87;126029;1099;104225;-83
2021/12/16 12:32:46;;;;;;;;;;;;;;;3.38;78.22;101354.58;126170;1099;104226;-83
2021/12/16 12:35:22;;;;;;;21.55;9.20;;;;;;;3.39;78.35;101346.02;126154;1099;104323;-79
2021/12/16 12:37:57;;;;;;;23.00;8.53;;;;;;;3.39;77.73;101340.84;126186;1099;118244;-80
2021/12/16 12:40:36;;;;;;;22.53;9.10;;;;;;;3.36;77.53;101341.48;126077;1098;104216;-80
2021/12/16 12:43:10;;;;;;;22.03;8.57;;;;;;;3.34;77.96;101339.58;126287;1099;104149;-80
2021/12/16 12:45:53;;;;;;;26.93;11.23;;;;;;;3.34;78.31;101350.85;126066;1099;104139;-82
2021/12/16 12:48:29;;;;;;;22.83;9.67;;;;;;;3.35;77.56;101354.34;126049;1099;104230;-80
2021/12/16 12:51:34;;;;;;;21.73;9.60;;;;;;;3.34;78.40;101349.95;125206;1103;104542;-83
2021/12/16 12:54:28;;;;;;;24.60;10.40;;;;;;;3.31;77.84;101349.72;125272;1102;104268;-81
2021/12/16 12:57:29;;;;;;;22.77;10.00;;;;;;;3.29;77.57;101361.64;124995;1102;104236;-82
2021/12/16 13:00:29;;;;;;;25.50;11.10;;;;;;;3.26;77.96;101361.40;125195;1100;104434;-82
2021/12/16 13:03:06;;;;;;;22.50;9.73;;;;;;;3.24;77.73;101362.20;125253;1101;104233;-80
2021/12/16 13:05:41;;;;;;;22.70;9.87;;;;;;;3.22;77.83;101366.34;125175;1102;104153;-80
2021/12/16 13:08:19;;;;;;;24.07;10.17;;;;;;;3.19;78.31;101360.91;124847;1103;104423;-80
2021/12/16 13:10:52;;;;;;;24.63;10.13;;;;;;;3.20;78.41;101370.52;125121;1102;104472;-80
2021/12/16 13:13:45;;;;;;;20.47;8.73;;;;;;;3.21;77.82;101368.81;125123;1102;104203;-81
2021/12/16 13:23:30;;;;;;;20.10;8.27;;;;;;;3.19;77.79;101360.91;124663;1105;104216;-78
2021/12/16 13:29:39;;;;;;;17.43;7.53;;;;;;;3.16;77.68;101360.67;125131;1102;104374;-78
2021/12/16 13:32:28;;;;;;;15.80;7.00;;;;;;;3.11;77.32;101353.33;125138;1102;104149;-79
2021/12/16 13:35:37;;;;;;;20.07;8.13;;;;;;;3.06;77.12;101350.38;125040;1102;104194;-79
2021/12/16 13:38:39;;;;;;;19.23;8.37;;;;;;;3.04;77.16;101357.14;125110;1102;103036;-81
2021/12/16 13:41:28;;;;;;;18.50;8.50;;;;;;;3.01;76.81;101362.08;125132;1102;104197;-80
2021/12/16 13:44:07;;;;;;;19.55;8.28;;;;;;;2.98;77.25;101351.46;125180;1102;103605;-78
2021/12/16 14:03:16;;;;;;;22.20;9.93;;;;;;;2.92;77.78;101361.34;125183;1099;104231;-80
2021/12/16 14:06:08;;;;;;;24.27;10.43;;;;;;;2.91;77.25;101352.63;124994;1099;104179;-80
2021/12/16 14:08:46;;;;;;;27.03;11.77;;;;;;;2.91;77.21;101346.55;124979;1102;104162;-80
2021/12/16 14:14:50;;;;;;;24.30;10.37;;;;;;;2.94;77.90;101352.88;125809;1099;104376;-78
2021/12/16 14:17:53;;;;;;;25.03;10.27;;;;;;;2.94;77.92;101344.20;126073;1099;104714;-80
2021/12/16 14:24:04;;;;;;;24.73;10.87;;;;;;;2.95;77.48;101336.55;125300;1099;104281;-79
2021/12/16 14:26:43;;;;;;;28.60;11.60;;;;;;;2.94;77.57;101331.25;125130;1099;104169;-80
2021/12/16 14:35:02;;;;;;;20.13;8.60;;;;;;;2.95;77.47;101321.00;125255;1099;104162;-78
2021/12/16 14:37:46;;;;;;;25.40;9.67;;;;;;;2.96;77.43;101324.48;125207;1099;104280;-81
2021/12/16 14:40:37;;;;;;;23.13;9.33;;;;;;;2.96;77.60;101314.11;125305;1099;104175;-79